sensor_id;sensor_type;location;lat;lon;timestamp;P1;durP1;ratioP1;P2;durP2;ratioP2
59416;SDS011;45222;52.458;20.914;2023-07-30T00:03:11;5.90;;;2.60;;
59416;SDS011;45222;52.458;20.914;2023-07-30T00:06:56;4.10;;;2.70;;
59416;SDS011;45222;52.458;20.914;2023-07-30T00:10:41;4.20;;;2.50;;
59416;SDS011;45222;52.458;20.914;2023-07-30T00:14:26;5.90;;;3.10;;
59416;SDS011;45222;52.458;20.914;2023-07-30T00:18:11;6.70;;;2.80;;
59416;SDS011;45222;52.458;20.914;2023-07-30T00:21:56;7.30;;;2.80;;
59416;SDS011;45222;52.458;20.914;2023-07-30T00:25:41;7.20;;;2.70;;
59416;SDS011;45222;52.458;20.914;2023-07-30T00:29:26;5.80;;;2.80;;
59416;SDS011;45222;52.458;20.914;2023-07-30T00:33:11;5.50;;;2.60;;
59416;SDS011;45222;52.458;20.914;2023-07-30T00:36:57;5.10;;;2.70;;
59416;SDS011;45222;52.458;20.914;2023-07-30T00:40:42;6.10;;;2.80;;
59416;SDS011;45222;52.458;20.914;2023-07-30T00:44:27;5.10;;;2.70;;
59416;SDS011;45222;52.458;20.914;2023-07-30T00:48:12;7.80;;;3.10;;
59416;SDS011;45222;52.458;20.914;2023-07-30T00:51:58;6.90;;;3.50;;
59416;SDS011;45222;52.458;20.914;2023-07-30T00:55:43;7.00;;;3.80;;
59416;SDS011;45222;52.458;20.914;2023-07-30T00:59:28;7.70;;;3.50;;
59416;SDS011;45222;52.458;20.914;2023-07-30T01:03:14;7.50;;;3.90;;
59416;SDS011;45222;52.458;20.914;2023-07-30T01:06:59;5.50;;;3.00;;
59416;SDS011;45222;52.458;20.914;2023-07-30T01:10:45;7.40;;;3.20;;
59416;SDS011;45222;52.458;20.914;2023-07-30T01:14:30;7.50;;;3.20;;
59416;SDS011;45222;52.458;20.914;2023-07-30T01:18:16;6.60;;;3.30;;
59416;SDS011;45222;52.458;20.914;2023-07-30T01:22:01;6.60;;;3.00;;
59416;SDS011;45222;52.458;20.914;2023-07-30T01:25:46;8.60;;;3.20;;
59416;SDS011;45222;52.458;20.914;2023-07-30T01:29:38;5.90;;;3.20;;
59416;SDS011;45222;52.458;20.914;2023-07-30T01:37:26;7.30;;;2.70;;
59416;SDS011;45222;52.458;20.914;2023-07-30T01:41:12;4.90;;;2.70;;
59416;SDS011;45222;52.458;20.914;2023-07-30T01:44:57;4.90;;;3.00;;
59416;SDS011;45222;52.458;20.914;2023-07-30T01:48:42;6.30;;;2.90;;
59416;SDS011;45222;52.458;20.914;2023-07-30T01:52:28;7.20;;;2.90;;
59416;SDS011;45222;52.458;20.914;2023-07-30T01:56:13;4.80;;;2.80;;
59416;SDS011;45222;52.458;20.914;2023-07-30T01:59:58;5.90;;;2.90;;
59416;SDS011;45222;52.458;20.914;2023-07-30T02:03:43;6.90;;;2.90;;
59416;SDS011;45222;52.458;20.914;2023-07-30T02:07:29;5.80;;;3.00;;
59416;SDS011;45222;52.458;20.914;2023-07-30T02:11:17;8.50;;;3.20;;
59416;SDS011;45222;52.458;20.914;2023-07-30T02:15:07;5.30;;;2.80;;
59416;SDS011;45222;52.458;20.914;2023-07-30T02:18:52;6.50;;;3.00;;
59416;SDS011;45222;52.458;20.914;2023-07-30T02:22:38;6.30;;;2.80;;
59416;SDS011;45222;52.458;20.914;2023-07-30T02:26:23;5.80;;;3.10;;
59416;SDS011;45222;52.458;20.914;2023-07-30T02:30:09;5.30;;;2.90;;
59416;SDS011;45222;52.458;20.914;2023-07-30T02:33:54;5.70;;;3.30;;
59416;SDS011;45222;52.458;20.914;2023-07-30T02:37:40;5.20;;;3.30;;
59416;SDS011;45222;52.458;20.914;2023-07-30T02:41:25;6.80;;;3.20;;
59416;SDS011;45222;52.458;20.914;2023-07-30T02:45:10;6.00;;;3.20;;
59416;SDS011;45222;52.458;20.914;2023-07-30T02:48:55;6.60;;;3.60;;
59416;SDS011;45222;52.458;20.914;2023-07-30T02:52:41;7.60;;;3.30;;
59416;SDS011;45222;52.458;20.914;2023-07-30T02:56:26;5.80;;;3.30;;
59416;SDS011;45222;52.458;20.914;2023-07-30T03:00:12;7.60;;;3.40;;
59416;SDS011;45222;52.458;20.914;2023-07-30T03:03:57;6.10;;;3.20;;
59416;SDS011;45222;52.458;20.914;2023-07-30T03:07:43;7.70;;;3.40;;
59416;SDS011;45222;52.458;20.914;2023-07-30T03:11:28;6.10;;;3.30;;
59416;SDS011;45222;52.458;20.914;2023-07-30T03:15:13;6.00;;;3.80;;
59416;SDS011;45222;52.458;20.914;2023-07-30T03:18:58;4.40;;;2.90;;
59416;SDS011;45222;52.458;20.914;2023-07-30T03:22:43;5.80;;;2.90;;
59416;SDS011;45222;52.458;20.914;2023-07-30T03:26:29;8.40;;;3.30;;
59416;SDS011;45222;52.458;20.914;2023-07-30T03:30:14;7.40;;;2.80;;
59416;SDS011;45222;52.458;20.914;2023-07-30T03:33:59;6.00;;;3.10;;
59416;SDS011;45222;52.458;20.914;2023-07-30T03:37:44;6.10;;;2.90;;
59416;SDS011;45222;52.458;20.914;2023-07-30T03:41:29;6.10;;;2.90;;
59416;SDS011;45222;52.458;20.914;2023-07-30T03:45:14;7.00;;;3.00;;
59416;SDS011;45222;52.458;20.914;2023-07-30T03:48:59;4.40;;;2.60;;
59416;SDS011;45222;52.458;20.914;2023-07-30T03:52:45;6.60;;;2.80;;
59416;SDS011;45222;52.458;20.914;2023-07-30T03:56:30;6.10;;;2.70;;
59416;SDS011;45222;52.458;20.914;2023-07-30T04:00:16;7.10;;;2.60;;
59416;SDS011;45222;52.458;20.914;2023-07-30T04:04:01;4.80;;;3.10;;
59416;SDS011;45222;52.458;20.914;2023-07-30T04:07:46;5.10;;;2.90;;
59416;SDS011;45222;52.458;20.914;2023-07-30T04:11:32;5.60;;;2.80;;
59416;SDS011;45222;52.458;20.914;2023-07-30T04:15:17;7.50;;;2.90;;
59416;SDS011;45222;52.458;20.914;2023-07-30T04:19:02;7.20;;;3.10;;
59416;SDS011;45222;52.458;20.914;2023-07-30T04:22:47;12.90;;;3.30;;
59416;SDS011;45222;52.458;20.914;2023-07-30T04:26:32;6.00;;;2.80;;
59416;SDS011;45222;52.458;20.914;2023-07-30T04:30:17;7.20;;;2.70;;
59416;SDS011;45222;52.458;20.914;2023-07-30T04:34:03;5.70;;;2.50;;
59416;SDS011;45222;52.458;20.914;2023-07-30T04:37:48;4.60;;;2.50;;
59416;SDS011;45222;52.458;20.914;2023-07-30T04:41:33;6.00;;;2.40;;
59416;SDS011;45222;52.458;20.914;2023-07-30T04:45:18;6.20;;;2.40;;
59416;SDS011;45222;52.458;20.914;2023-07-30T04:49:04;5.50;;;2.40;;
59416;SDS011;45222;52.458;20.914;2023-07-30T04:52:49;6.00;;;2.30;;
59416;SDS011;45222;52.458;20.914;2023-07-30T04:56:35;6.00;;;2.20;;
59416;SDS011;45222;52.458;20.914;2023-07-30T05:00:20;3.80;;;2.40;;
59416;SDS011;45222;52.458;20.914;2023-07-30T05:04:05;5.60;;;2.20;;
59416;SDS011;45222;52.458;20.914;2023-07-30T05:07:50;7.80;;;2.30;;
59416;SDS011;45222;52.458;20.914;2023-07-30T05:11:35;7.40;;;2.40;;
59416;SDS011;45222;52.458;20.914;2023-07-30T05:15:21;9.40;;;3.20;;
59416;SDS011;45222;52.458;20.914;2023-07-30T05:19:06;8.20;;;2.60;;
59416;SDS011;45222;52.458;20.914;2023-07-30T05:22:51;7.60;;;2.80;;
59416;SDS011;45222;52.458;20.914;2023-07-30T05:26:37;7.10;;;2.90;;
59416;SDS011;45222;52.458;20.914;2023-07-30T05:30:22;4.90;;;2.30;;
59416;SDS011;45222;52.458;20.914;2023-07-30T05:34:07;7.20;;;3.00;;
59416;SDS011;45222;52.458;20.914;2023-07-30T05:37:53;5.00;;;2.50;;
59416;SDS011;45222;52.458;20.914;2023-07-30T05:41:38;3.90;;;2.00;;
59416;SDS011;45222;52.458;20.914;2023-07-30T05:45:23;4.80;;;2.20;;
59416;SDS011;45222;52.458;20.914;2023-07-30T05:49:08;5.70;;;2.30;;
59416;SDS011;45222;52.458;20.914;2023-07-30T05:52:54;6.20;;;2.30;;
59416;SDS011;45222;52.458;20.914;2023-07-30T05:56:39;5.10;;;2.30;;
59416;SDS011;45222;52.458;20.914;2023-07-30T06:00:24;5.50;;;2.70;;
59416;SDS011;45222;52.458;20.914;2023-07-30T06:04:10;4.50;;;2.20;;
59416;SDS011;45222;52.458;20.914;2023-07-30T06:07:55;6.20;;;2.40;;
59416;SDS011;45222;52.458;20.914;2023-07-30T06:11:40;5.50;;;2.30;;
59416;SDS011;45222;52.458;20.914;2023-07-30T06:15:25;4.90;;;2.20;;
59416;SDS011;45222;52.458;20.914;2023-07-30T06:19:10;5.90;;;2.30;;
59416;SDS011;45222;52.458;20.914;2023-07-30T06:22:55;6.00;;;2.70;;
59416;SDS011;45222;52.458;20.914;2023-07-30T06:26:40;5.20;;;2.60;;
59416;SDS011;45222;52.458;20.914;2023-07-30T06:30:26;5.20;;;2.80;;
59416;SDS011;45222;52.458;20.914;2023-07-30T06:34:11;6.00;;;2.80;;
59416;SDS011;45222;52.458;20.914;2023-07-30T06:37:56;6.30;;;3.10;;
59416;SDS011;45222;52.458;20.914;2023-07-30T06:41:41;8.10;;;3.80;;
59416;SDS011;45222;52.458;20.914;2023-07-30T06:45:26;7.70;;;2.90;;
59416;SDS011;45222;52.458;20.914;2023-07-30T06:49:12;6.40;;;2.60;;
59416;SDS011;45222;52.458;20.914;2023-07-30T06:52:57;4.80;;;2.40;;
59416;SDS011;45222;52.458;20.914;2023-07-30T06:56:42;5.90;;;2.80;;
59416;SDS011;45222;52.458;20.914;2023-07-30T07:00:27;6.30;;;3.10;;
59416;SDS011;45222;52.458;20.914;2023-07-30T07:04:13;6.40;;;3.00;;
59416;SDS011;45222;52.458;20.914;2023-07-30T07:07:58;6.10;;;2.90;;
59416;SDS011;45222;52.458;20.914;2023-07-30T16:30:42;5.10;;;2.40;;
59416;SDS011;45222;52.458;20.914;2023-07-30T16:34:27;4.30;;;2.20;;
59416;SDS011;45222;52.458;20.914;2023-07-30T16:38:12;5.50;;;2.70;;
59416;SDS011;45222;52.458;20.914;2023-07-30T16:41:57;5.20;;;2.80;;
59416;SDS011;45222;52.458;20.914;2023-07-30T16:45:42;4.00;;;2.60;;
59416;SDS011;45222;52.458;20.914;2023-07-30T16:49:27;5.60;;;2.80;;
59416;SDS011;45222;52.458;20.914;2023-07-30T16:53:13;4.70;;;2.80;;
59416;SDS011;45222;52.458;20.914;2023-07-30T16:56:58;3.90;;;2.50;;
59416;SDS011;45222;52.458;20.914;2023-07-30T17:00:43;5.60;;;2.90;;
59416;SDS011;45222;52.458;20.914;2023-07-30T17:04:28;5.30;;;2.90;;
59416;SDS011;45222;52.458;20.914;2023-07-30T17:08:14;5.10;;;3.00;;
59416;SDS011;45222;52.458;20.914;2023-07-30T17:11:59;5.20;;;3.10;;
59416;SDS011;45222;52.458;20.914;2023-07-30T17:15:44;5.90;;;3.00;;
59416;SDS011;45222;52.458;20.914;2023-07-30T17:19:29;5.90;;;2.90;;
59416;SDS011;45222;52.458;20.914;2023-07-30T17:23:15;4.20;;;2.80;;
59416;SDS011;45222;52.458;20.914;2023-07-30T17:27:00;7.30;;;3.20;;
59416;SDS011;45222;52.458;20.914;2023-07-30T17:30:45;4.40;;;2.80;;
59416;SDS011;45222;52.458;20.914;2023-07-30T17:34:30;5.20;;;2.90;;
59416;SDS011;45222;52.458;20.914;2023-07-30T17:38:15;6.30;;;3.20;;
59416;SDS011;45222;52.458;20.914;2023-07-30T17:42:03;5.60;;;3.20;;
59416;SDS011;45222;52.458;20.914;2023-07-30T17:45:50;7.50;;;3.60;;
59416;SDS011;45222;52.458;20.914;2023-07-30T17:49:35;6.90;;;3.20;;
59416;SDS011;45222;52.458;20.914;2023-07-30T17:53:22;6.90;;;3.40;;
59416;SDS011;45222;52.458;20.914;2023-07-30T17:57:07;6.80;;;3.10;;
59416;SDS011;45222;52.458;20.914;2023-07-30T18:00:52;4.20;;;2.80;;
59416;SDS011;45222;52.458;20.914;2023-07-30T18:04:39;4.80;;;3.10;;
59416;SDS011;45222;52.458;20.914;2023-07-30T18:08:24;7.30;;;3.40;;
59416;SDS011;45222;52.458;20.914;2023-07-30T18:12:10;6.00;;;3.10;;
59416;SDS011;45222;52.458;20.914;2023-07-30T18:15:55;5.70;;;3.30;;
59416;SDS011;45222;52.458;20.914;2023-07-30T18:19:40;5.40;;;3.40;;
59416;SDS011;45222;52.458;20.914;2023-07-30T18:23:25;6.10;;;3.40;;
59416;SDS011;45222;52.458;20.914;2023-07-30T18:27:10;7.30;;;3.20;;
59416;SDS011;45222;52.458;20.914;2023-07-30T18:30:55;7.00;;;3.30;;
59416;SDS011;45222;52.458;20.914;2023-07-30T18:34:40;6.50;;;3.20;;
59416;SDS011;45222;52.458;20.914;2023-07-30T18:38:26;7.40;;;4.10;;
59416;SDS011;45222;52.458;20.914;2023-07-30T18:42:12;8.10;;;3.90;;
59416;SDS011;45222;52.458;20.914;2023-07-30T18:45:57;6.80;;;3.80;;
59416;SDS011;45222;52.458;20.914;2023-07-30T18:49:43;7.30;;;3.90;;
59416;SDS011;45222;52.458;20.914;2023-07-30T18:53:29;7.70;;;3.90;;
59416;SDS011;45222;52.458;20.914;2023-07-30T18:57:14;6.80;;;3.90;;
59416;SDS011;45222;52.458;20.914;2023-07-30T19:01:01;7.80;;;4.10;;
59416;SDS011;45222;52.458;20.914;2023-07-30T19:04:47;6.30;;;4.00;;
59416;SDS011;45222;52.458;20.914;2023-07-30T19:08:33;7.40;;;4.20;;
59416;SDS011;45222;52.458;20.914;2023-07-30T19:12:18;6.70;;;4.00;;
59416;SDS011;45222;52.458;20.914;2023-07-30T19:16:04;7.40;;;4.40;;
59416;SDS011;45222;52.458;20.914;2023-07-30T19:19:49;9.70;;;4.80;;
59416;SDS011;45222;52.458;20.914;2023-07-30T19:23:35;8.60;;;4.20;;
59416;SDS011;45222;52.458;20.914;2023-07-30T19:27:20;12.00;;;4.50;;
59416;SDS011;45222;52.458;20.914;2023-07-30T19:31:11;9.50;;;4.60;;
59416;SDS011;45222;52.458;20.914;2023-07-30T19:34:58;7.80;;;4.30;;
59416;SDS011;45222;52.458;20.914;2023-07-30T19:38:46;6.70;;;4.20;;
59416;SDS011;45222;52.458;20.914;2023-07-30T19:42:34;7.10;;;4.60;;
59416;SDS011;45222;52.458;20.914;2023-07-30T19:46:20;7.50;;;4.30;;
59416;SDS011;45222;52.458;20.914;2023-07-30T19:50:06;10.00;;;4.30;;
59416;SDS011;45222;52.458;20.914;2023-07-30T19:53:52;9.80;;;4.30;;
59416;SDS011;45222;52.458;20.914;2023-07-30T19:57:37;8.40;;;4.30;;
59416;SDS011;45222;52.458;20.914;2023-07-30T20:01:23;6.70;;;4.10;;
59416;SDS011;45222;52.458;20.914;2023-07-30T20:05:09;9.60;;;4.90;;
59416;SDS011;45222;52.458;20.914;2023-07-30T20:08:57;9.50;;;5.00;;
59416;SDS011;45222;52.458;20.914;2023-07-30T20:12:43;9.90;;;4.60;;
59416;SDS011;45222;52.458;20.914;2023-07-30T20:16:28;7.90;;;4.70;;
59416;SDS011;45222;52.458;20.914;2023-07-30T20:20:13;10.50;;;5.20;;
59416;SDS011;45222;52.458;20.914;2023-07-30T20:24:01;10.50;;;5.90;;
59416;SDS011;45222;52.458;20.914;2023-07-30T20:27:49;9.30;;;5.10;;
59416;SDS011;45222;52.458;20.914;2023-07-30T20:31:34;10.50;;;5.20;;
59416;SDS011;45222;52.458;20.914;2023-07-30T20:35:21;9.60;;;5.20;;
59416;SDS011;45222;52.458;20.914;2023-07-30T20:39:06;9.20;;;5.00;;
59416;SDS011;45222;52.458;20.914;2023-07-30T20:42:52;8.70;;;4.80;;
59416;SDS011;45222;52.458;20.914;2023-07-30T20:46:38;7.00;;;5.10;;
59416;SDS011;45222;52.458;20.914;2023-07-30T20:50:23;8.30;;;5.80;;
59416;SDS011;45222;52.458;20.914;2023-07-30T20:54:08;7.90;;;5.20;;
59416;SDS011;45222;52.458;20.914;2023-07-30T20:57:54;9.70;;;5.10;;
59416;SDS011;45222;52.458;20.914;2023-07-30T21:01:42;11.10;;;5.40;;
59416;SDS011;45222;52.458;20.914;2023-07-30T21:05:27;6.90;;;5.20;;
59416;SDS011;45222;52.458;20.914;2023-07-30T21:09:12;8.60;;;5.40;;
59416;SDS011;45222;52.458;20.914;2023-07-30T21:12:58;7.30;;;5.20;;
59416;SDS011;45222;52.458;20.914;2023-07-30T21:16:43;7.40;;;5.30;;
59416;SDS011;45222;52.458;20.914;2023-07-30T21:20:29;7.10;;;4.90;;
59416;SDS011;45222;52.458;20.914;2023-07-30T21:24:14;7.00;;;4.60;;
59416;SDS011;45222;52.458;20.914;2023-07-30T21:27:59;7.50;;;5.00;;
59416;SDS011;45222;52.458;20.914;2023-07-30T21:31:44;8.70;;;5.00;;
59416;SDS011;45222;52.458;20.914;2023-07-30T21:35:29;7.60;;;5.40;;
59416;SDS011;45222;52.458;20.914;2023-07-30T21:39:14;7.30;;;5.10;;
59416;SDS011;45222;52.458;20.914;2023-07-30T21:43:00;6.70;;;4.50;;
59416;SDS011;45222;52.458;20.914;2023-07-30T21:46:45;8.50;;;4.90;;
59416;SDS011;45222;52.458;20.914;2023-07-30T21:50:30;6.60;;;4.30;;
59416;SDS011;45222;52.458;20.914;2023-07-30T21:54:15;6.90;;;4.30;;
59416;SDS011;45222;52.458;20.914;2023-07-30T21:58:01;8.70;;;5.40;;
59416;SDS011;45222;52.458;20.914;2023-07-30T22:01:46;8.80;;;4.90;;
59416;SDS011;45222;52.458;20.914;2023-07-30T22:05:32;9.00;;;4.50;;
59416;SDS011;45222;52.458;20.914;2023-07-30T22:09:17;7.20;;;4.50;;
59416;SDS011;45222;52.458;20.914;2023-07-30T22:13:02;7.70;;;4.50;;
59416;SDS011;45222;52.458;20.914;2023-07-30T22:16:47;8.20;;;4.80;;
59416;SDS011;45222;52.458;20.914;2023-07-30T22:20:33;8.30;;;4.70;;
59416;SDS011;45222;52.458;20.914;2023-07-30T22:24:18;7.70;;;4.60;;
59416;SDS011;45222;52.458;20.914;2023-07-30T22:28:03;7.60;;;4.70;;
59416;SDS011;45222;52.458;20.914;2023-07-30T22:31:48;7.80;;;4.70;;
59416;SDS011;45222;52.458;20.914;2023-07-30T22:35:34;7.30;;;4.90;;
59416;SDS011;45222;52.458;20.914;2023-07-30T22:39:19;10.40;;;5.10;;
59416;SDS011;45222;52.458;20.914;2023-07-30T22:43:04;7.10;;;4.80;;
59416;SDS011;45222;52.458;20.914;2023-07-30T22:46:50;7.90;;;4.70;;
59416;SDS011;45222;52.458;20.914;2023-07-30T22:50:35;6.80;;;4.30;;
59416;SDS011;45222;52.458;20.914;2023-07-30T22:54:20;7.10;;;4.40;;
59416;SDS011;45222;52.458;20.914;2023-07-30T22:58:05;6.90;;;3.70;;
59416;SDS011;45222;52.458;20.914;2023-07-30T23:01:51;5.60;;;3.80;;
59416;SDS011;45222;52.458;20.914;2023-07-30T23:05:36;7.40;;;4.00;;
59416;SDS011;45222;52.458;20.914;2023-07-30T23:09:22;7.40;;;4.10;;
59416;SDS011;45222;52.458;20.914;2023-07-30T23:13:07;8.20;;;4.40;;
59416;SDS011;45222;52.458;20.914;2023-07-30T23:16:52;7.10;;;4.50;;
59416;SDS011;45222;52.458;20.914;2023-07-30T23:20:37;7.10;;;4.30;;
59416;SDS011;45222;52.458;20.914;2023-07-30T23:24:23;9.50;;;4.10;;
59416;SDS011;45222;52.458;20.914;2023-07-30T23:28:08;7.50;;;4.00;;
59416;SDS011;45222;52.458;20.914;2023-07-30T23:31:53;7.20;;;4.10;;
59416;SDS011;45222;52.458;20.914;2023-07-30T23:35:38;6.30;;;4.20;;
59416;SDS011;45222;52.458;20.914;2023-07-30T23:39:23;9.20;;;4.80;;
59416;SDS011;45222;52.458;20.914;2023-07-30T23:43:08;6.70;;;4.30;;
59416;SDS011;45222;52.458;20.914;2023-07-30T23:46:53;7.70;;;4.80;;
59416;SDS011;45222;52.458;20.914;2023-07-30T23:50:38;9.60;;;4.10;;
59416;SDS011;45222;52.458;20.914;2023-07-30T23:54:25;9.60;;;4.10;;
59416;SDS011;45222;52.458;20.914;2023-07-30T23:58:10;8.40;;;4.50;;
